Main page
METAR-TAF:

METAR-TAF

Airports :

Svalbard Airport. Longyear

Longyearbyen, Norway

latitude: 78-15N, longitude: 015-28E, elevation: 2 m

Current weather observation

The report was made 29 minutes ago, at 17:50 UTC
Wind 1 kt from variable directions
Temperature -16°C
Humidity 78%
Pressure 1019 hPa
Visibility 10 km or more
no clouds below 1500 m and no cumulonimbus

METAR: ENSB 271750Z VRB01KT CAVOK M16/M19 Q1019 RMK WIND 1400FT 19004KT

Time: 19:19 (18:19 UTC)

Forecast

Forecast valid from 27 at 18 UTC to 28 at 18 UTC
Wind 8 kt from the East/Southeast
Visibility 10 km or more
Scattered clouds at a height of 6000 ft
Temporary
from 28 at 06 UTC to 28 at 18 UTC
Wind 18 kt from the East/Southeast

TAF: ENSB 2718/2818 12008KT 9999 SCT060 TEMPO 2806/2818 12018KT

Weather observations and forecasts of more than 4000 airports (METAR and TAF reports).

The available stations are represented by yellow and red dots on the map.

Hover mouse over dot to see the name of the station.

Then click to see weather observations and forecasts.

To change the map : click on the green buttons with a black cross to zoom in, on the green button with a dash to zoom out, or on the green arrows for adjacent maps.


METAR-TAF: